Time;durP1;ratioP1;P1;durP2;ratioP2;P2;SDS_P1;SDS_P2;PMS_P1;PMS_P2;Temp;Humidity;BMP_temperature;BMP_pressure;BME280_temperature;BME280_humidity;BME280_pressure;Samples;Min_cycle;Max_cycle;Signal;HPM_P1;HPM_P2
2024/01/25 00:01:34;;;;;;;32.75;6.80;;;;;;;;;;4989416;28;20022;-76
2024/01/25 00:04:00;;;;;;;53.58;7.15;;;;;;;;;;4988859;28;20070;-76
2024/01/25 00:06:26;;;;;;;43.42;7.85;;;;;;;;;;4990146;28;20034;-77
2024/01/25 00:08:52;;;;;;;48.72;6.65;;;;;;;;;;4988779;28;20034;-76
2024/01/25 00:11:19;;;;;;;50.42;7.13;;;;;;;;;;4989755;28;20038;-75
2024/01/25 00:13:45;;;;;;;52.25;6.15;;;;;;;;;;5003625;28;20022;-76
2024/01/25 00:16:11;;;;;;;50.50;7.90;;;;;;;;;;4987945;28;20031;-77
2024/01/25 00:18:37;;;;;;;55.55;8.73;;;;;;;;;;4989537;28;20030;-75
2024/01/25 00:21:03;;;;;;;51.05;8.68;;;;;;;;;;5012089;28;20043;-76
2024/01/25 00:23:29;;;;;;;46.67;6.82;;;;;;;;;;4989635;28;20045;-76
2024/01/25 00:25:58;;;;;;;64.53;7.43;;;;;;;;;;4989440;28;20034;-74
2024/01/25 00:28:25;;;;;;;45.85;7.13;;;;;;;;;;5009238;28;20031;-77
2024/01/25 00:30:51;;;;;;;57.95;8.57;;;;;;;;;;4989548;28;20034;-76
2024/01/25 00:33:17;;;;;;;38.15;6.15;;;;;;;;;;5016034;28;20038;-76
2024/01/25 00:35:43;;;;;;;43.20;7.10;;;;;;;;;;4989127;28;20125;-77
2024/01/25 00:38:10;;;;;;;55.65;7.70;;;;;;;;;;4970544;28;20038;-75
2024/01/25 00:40:36;;;;;;;58.15;7.68;;;;;;;;;;4987420;28;20034;-76
2024/01/25 00:43:02;;;;;;;56.47;7.60;;;;;;;;;;4987206;28;20018;-76
2024/01/25 00:45:29;;;;;;;54.30;7.30;;;;;;;;;;5002938;28;20037;-75
2024/01/25 00:47:55;;;;;;;61.60;9.10;;;;;;;;;;4988351;28;20035;-76
2024/01/25 00:50:23;;;;;;;59.63;7.38;;;;;;;;;;4989612;28;20018;-76
2024/01/25 00:52:50;;;;;;;60.83;7.95;;;;;;;;;;4988568;28;20030;-76
2024/01/25 00:55:16;;;;;;;63.20;8.65;;;;;;;;;;4988499;28;20037;-77
2024/01/25 00:57:42;;;;;;;63.47;9.57;;;;;;;;;;4988719;28;20030;-77
2024/01/25 01:00:09;;;;;;;56.80;8.18;;;;;;;;;;4988894;28;20037;-76
2024/01/25 01:02:36;;;;;;;54.28;9.15;;;;;;;;;;4987018;28;20022;-76
2024/01/25 01:05:03;;;;;;;65.43;9.38;;;;;;;;;;4988869;28;20030;-77
2024/01/25 01:07:29;;;;;;;60.75;9.98;;;;;;;;;;4970380;28;20034;-76
2024/01/25 01:09:55;;;;;;;52.60;7.35;;;;;;;;;;4988237;28;20069;-77
2024/01/25 01:12:21;;;;;;;48.20;6.53;;;;;;;;;;5017099;28;20480;-77
2024/01/25 01:14:48;;;;;;;57.53;8.73;;;;;;;;;;4988626;28;20030;-77
2024/01/25 01:17:15;;;;;;;66.90;8.73;;;;;;;;;;4988595;28;20031;-76
2024/01/25 01:19:42;;;;;;;67.88;9.90;;;;;;;;;;4988860;28;20063;-76
2024/01/25 01:22:08;;;;;;;63.13;8.15;;;;;;;;;;4986345;28;20034;-77
2024/01/25 01:24:34;;;;;;;48.22;7.63;;;;;;;;;;4988561;28;20019;-76
2024/01/25 01:27:00;;;;;;;49.47;7.85;;;;;;;;;;4989200;28;20510;-78
2024/01/25 01:29:28;;;;;;;61.03;9.00;;;;;;;;;;4988600;28;20034;-77
2024/01/25 01:31:54;;;;;;;59.08;7.78;;;;;;;;;;4988698;28;20042;-75
2024/01/25 01:34:26;;;;;;;55.75;8.20;;;;;;;;;;4989605;28;20022;-77
2024/01/25 01:36:52;;;;;;;63.83;8.45;;;;;;;;;;4987955;28;20037;-76
2024/01/25 01:39:18;;;;;;;59.03;8.20;;;;;;;;;;4989300;28;20113;-77
2024/01/25 01:41:48;;;;;;;61.13;7.82;;;;;;;;;;4988006;28;20027;-77
2024/01/25 01:44:14;;;;;;;52.25;8.35;;;;;;;;;;4988563;28;20080;-76
2024/01/25 01:46:41;;;;;;;60.50;9.00;;;;;;;;;;4988781;28;20031;-76
2024/01/25 01:49:08;;;;;;;61.13;9.48;;;;;;;;;;4987451;28;20026;-76
2024/01/25 01:51:35;;;;;;;63.22;9.15;;;;;;;;;;4988444;28;20034;-76
2024/01/25 01:54:04;;;;;;;53.90;8.43;;;;;;;;;;4988080;28;20137;-76
2024/01/25 01:56:31;;;;;;;59.60;7.90;;;;;;;;;;5015872;28;20379;-75
2024/01/25 01:58:59;;;;;;;48.78;7.10;;;;;;;;;;4988402;28;20044;-75
2024/01/25 02:01:25;;;;;;;56.80;7.70;;;;;;;;;;4987881;28;20110;-77
2024/01/25 02:03:52;;;;;;;61.97;8.20;;;;;;;;;;4988316;28;20041;-76
2024/01/25 02:06:20;;;;;;;57.92;7.55;;;;;;;;;;5004858;28;20073;-76
2024/01/25 02:08:48;;;;;;;63.28;9.15;;;;;;;;;;4990253;28;20038;-77
2024/01/25 02:11:14;;;;;;;83.72;9.23;;;;;;;;;;4989560;28;20066;-77
2024/01/25 02:13:42;;;;;;;52.85;7.95;;;;;;;;;;5019842;28;20051;-76
2024/01/25 02:16:08;;;;;;;65.05;7.63;;;;;;;;;;4990963;28;20074;-76
2024/01/25 02:18:34;;;;;;;65.68;7.00;;;;;;;;;;4990425;28;20039;-76
2024/01/25 02:21:01;;;;;;;63.78;8.43;;;;;;;;;;4990307;28;20026;-76
2024/01/25 02:23:27;;;;;;;65.70;10.98;;;;;;;;;;4990265;28;20034;-76
2024/01/25 02:25:53;;;;;;;87.13;11.27;;;;;;;;;;4989683;28;20023;-76
2024/01/25 02:28:19;;;;;;;53.28;7.38;;;;;;;;;;4990219;28;20037;-76
2024/01/25 02:30:46;;;;;;;66.38;8.13;;;;;;;;;;5009896;28;20033;-75
2024/01/25 02:33:12;;;;;;;67.85;8.50;;;;;;;;;;4989678;28;20041;-77
2024/01/25 02:35:38;;;;;;;72.85;9.45;;;;;;;;;;5017988;28;20449;-77
2024/01/25 02:38:04;;;;;;;76.95;7.90;;;;;;;;;;4988788;28;20034;-75
2024/01/25 02:40:31;;;;;;;64.93;8.90;;;;;;;;;;4990704;28;20031;-77
2024/01/25 02:42:57;;;;;;;63.55;9.15;;;;;;;;;;4988238;28;20461;-76
2024/01/25 02:45:23;;;;;;;74.53;9.77;;;;;;;;;;5022053;28;20555;-76
2024/01/25 02:47:50;;;;;;;76.53;9.48;;;;;;;;;;5006782;28;20042;-76
2024/01/25 02:50:16;;;;;;;69.93;8.15;;;;;;;;;;4971565;28;20394;-77
2024/01/25 02:52:42;;;;;;;49.22;7.88;;;;;;;;;;5015029;28;20052;-76
2024/01/25 02:55:08;;;;;;;78.65;9.57;;;;;;;;;;4991512;28;20144;-76
2024/01/25 02:57:34;;;;;;;65.78;8.25;;;;;;;;;;4990861;28;20041;-76
2024/01/25 03:00:01;;;;;;;67.00;9.15;;;;;;;;;;5007342;28;20542;-76
2024/01/25 03:02:27;;;;;;;60.95;8.10;;;;;;;;;;4990800;28;20113;-77
2024/01/25 03:04:53;;;;;;;68.22;7.55;;;;;;;;;;4990680;28;20027;-77
2024/01/25 03:07:19;;;;;;;71.15;9.63;;;;;;;;;;4987556;28;20058;-77
2024/01/25 03:09:45;;;;;;;58.95;8.27;;;;;;;;;;5021275;28;20034;-77
2024/01/25 03:12:12;;;;;;;65.45;7.22;;;;;;;;;;4990341;28;20393;-76
2024/01/25 03:14:39;;;;;;;81.07;10.18;;;;;;;;;;4990199;28;20369;-77
2024/01/25 03:17:05;;;;;;;61.15;10.60;;;;;;;;;;4989357;28;20034;-76
2024/01/25 03:19:31;;;;;;;58.47;8.05;;;;;;;;;;4989470;28;20034;-77
2024/01/25 03:21:58;;;;;;;64.32;9.23;;;;;;;;;;4987637;28;20362;-76
2024/01/25 03:24:24;;;;;;;62.67;8.82;;;;;;;;;;5004039;28;20034;-76
2024/01/25 03:26:50;;;;;;;64.63;6.65;;;;;;;;;;4990169;28;20109;-76
2024/01/25 03:29:16;;;;;;;64.72;8.73;;;;;;;;;;4988892;28;20096;-76
2024/01/25 03:31:43;;;;;;;57.95;8.18;;;;;;;;;;4989230;28;20682;-77
2024/01/25 03:34:09;;;;;;;56.13;7.50;;;;;;;;;;4988426;28;20249;-76
2024/01/25 03:36:35;;;;;;;69.70;8.93;;;;;;;;;;5018596;28;20490;-77
2024/01/25 03:39:02;;;;;;;63.35;8.20;;;;;;;;;;4989994;28;20049;-77
2024/01/25 03:41:29;;;;;;;69.55;9.35;;;;;;;;;;4987945;28;20376;-76
2024/01/25 03:43:55;;;;;;;80.47;8.05;;;;;;;;;;4989553;28;20117;-77
2024/01/25 03:46:21;;;;;;;63.67;8.35;;;;;;;;;;4988506;28;20030;-77
2024/01/25 03:48:47;;;;;;;77.90;11.82;;;;;;;;;;4989528;28;20041;-75
2024/01/25 03:51:13;;;;;;;68.43;8.43;;;;;;;;;;5016994;28;20034;-76
2024/01/25 03:53:42;;;;;;;64.32;8.85;;;;;;;;;;4989390;28;20125;-76
2024/01/25 03:56:17;;;;;;;76.70;11.07;;;;;;;;;;4989416;28;20034;-77
2024/01/25 03:58:43;;;;;;;90.88;11.25;;;;;;;;;;4989997;28;20026;-76
2024/01/25 04:01:09;;;;;;;69.60;8.35;;;;;;;;;;4989400;28;20650;-77
2024/01/25 04:03:36;;;;;;;78.32;9.30;;;;;;;;;;4988273;28;20026;-77
2024/01/25 04:06:02;;;;;;;61.47;8.07;;;;;;;;;;4987512;28;20029;-77
2024/01/25 04:08:28;;;;;;;75.30;8.77;;;;;;;;;;5018175;28;20061;-77
2024/01/25 04:10:54;;;;;;;73.30;8.60;;;;;;;;;;4988587;28;20038;-76
2024/01/25 04:13:20;;;;;;;61.05;8.25;;;;;;;;;;4990092;28;20416;-75
2024/01/25 04:15:47;;;;;;;74.78;9.52;;;;;;;;;;4988778;28;20504;-76
2024/01/25 04:18:13;;;;;;;78.80;11.10;;;;;;;;;;4989118;28;20149;-76
2024/01/25 04:20:40;;;;;;;69.03;9.48;;;;;;;;;;4988685;28;20030;-76
2024/01/25 04:23:06;;;;;;;70.00;7.95;;;;;;;;;;5012656;28;20015;-76
2024/01/25 04:25:32;;;;;;;89.03;8.85;;;;;;;;;;4988821;28;20113;-76
2024/01/25 04:27:58;;;;;;;72.93;10.63;;;;;;;;;;4989655;28;20035;-76
2024/01/25 04:30:24;;;;;;;79.55;10.43;;;;;;;;;;4989424;28;20062;-76
2024/01/25 04:32:51;;;;;;;77.25;9.95;;;;;;;;;;4989313;28;20054;-77
2024/01/25 04:35:17;;;;;;;72.28;10.88;;;;;;;;;;4988139;28;20038;-76
2024/01/25 04:37:43;;;;;;;79.07;11.27;;;;;;;;;;4985128;28;20309;-77
2024/01/25 04:40:09;;;;;;;76.88;8.82;;;;;;;;;;4989200;28;20026;-76
2024/01/25 04:42:35;;;;;;;84.72;8.75;;;;;;;;;;4989728;28;20400;-77
2024/01/25 04:45:02;;;;;;;72.35;9.13;;;;;;;;;;4987962;28;20414;-77
2024/01/25 04:47:28;;;;;;;89.00;9.73;;;;;;;;;;4987501;28;20027;-76
2024/01/25 04:49:54;;;;;;;84.70;10.32;;;;;;;;;;4989074;28;20030;-77
2024/01/25 04:52:20;;;;;;;81.32;8.80;;;;;;;;;;4983604;28;20026;-76
2024/01/25 04:54:47;;;;;;;98.00;13.40;;;;;;;;;;4999583;28;20022;-76
2024/01/25 04:57:13;;;;;;;79.30;10.82;;;;;;;;;;4988794;28;20841;-76
2024/01/25 04:59:39;;;;;;;73.95;11.60;;;;;;;;;;4987649;28;20035;-76
2024/01/25 05:02:05;;;;;;;68.88;9.10;;;;;;;;;;4988715;28;20046;-75
2024/01/25 05:04:31;;;;;;;79.95;9.10;;;;;;;;;;5009963;28;20039;-77
2024/01/25 05:06:58;;;;;;;64.18;8.93;;;;;;;;;;4987165;28;20180;-77
2024/01/25 05:09:24;;;;;;;76.57;8.70;;;;;;;;;;5001765;28;20053;-77
2024/01/25 05:11:50;;;;;;;78.68;9.93;;;;;;;;;;4989135;28;20046;-76
2024/01/25 05:14:16;;;;;;;68.15;9.48;;;;;;;;;;4987041;28;20041;-77
2024/01/25 05:16:42;;;;;;;85.63;11.85;;;;;;;;;;4988831;28;20035;-77
2024/01/25 05:19:09;;;;;;;70.90;8.43;;;;;;;;;;5009610;28;20057;-76
2024/01/25 05:21:35;;;;;;;91.32;10.95;;;;;;;;;;4988420;28;20018;-76
2024/01/25 05:24:01;;;;;;;72.78;11.57;;;;;;;;;;5007560;28;20117;-76
2024/01/25 05:26:27;;;;;;;79.10;10.82;;;;;;;;;;4988648;28;20026;-76
2024/01/25 05:28:53;;;;;;;82.03;10.90;;;;;;;;;;4988823;28;20124;-76
2024/01/25 05:31:19;;;;;;;76.55;9.23;;;;;;;;;;4987675;28;20050;-76
2024/01/25 05:33:45;;;;;;;86.07;11.68;;;;;;;;;;4988679;28;20058;-77
2024/01/25 05:36:13;;;;;;;90.63;13.35;;;;;;;;;;4984570;28;20034;-77
2024/01/25 05:38:39;;;;;;;89.28;10.85;;;;;;;;;;4987547;28;20512;-77
2024/01/25 05:41:05;;;;;;;65.90;10.30;;;;;;;;;;4989847;28;20026;-77
2024/01/25 05:43:32;;;;;;;103.22;13.45;;;;;;;;;;5020588;28;20039;-77
2024/01/25 05:45:59;;;;;;;88.85;11.75;;;;;;;;;;4988930;28;20101;-77
2024/01/25 05:48:26;;;;;;;76.10;11.88;;;;;;;;;;4991697;28;20037;-75
2024/01/25 05:50:52;;;;;;;84.63;11.50;;;;;;;;;;4991253;28;20357;-76
2024/01/25 05:53:19;;;;;;;86.28;14.50;;;;;;;;;;4992064;28;20022;-76
2024/01/25 05:55:46;;;;;;;90.30;13.07;;;;;;;;;;4991878;28;20066;-77
2024/01/25 05:58:12;;;;;;;76.85;11.50;;;;;;;;;;4990587;28;20118;-76
2024/01/25 06:00:38;;;;;;;84.18;12.73;;;;;;;;;;4990215;28;20022;-77
2024/01/25 06:03:04;;;;;;;78.90;12.23;;;;;;;;;;4991826;28;20034;-76
2024/01/25 06:05:31;;;;;;;91.25;12.52;;;;;;;;;;4988745;28;20042;-76
2024/01/25 06:07:57;;;;;;;86.15;12.88;;;;;;;;;;4987299;28;20026;-76
2024/01/25 06:10:23;;;;;;;79.85;10.88;;;;;;;;;;4991394;28;20038;-77
2024/01/25 06:12:49;;;;;;;75.70;13.75;;;;;;;;;;4987922;28;20125;-77
2024/01/25 06:15:15;;;;;;;79.57;11.93;;;;;;;;;;5018172;28;20038;-77
2024/01/25 06:17:42;;;;;;;92.63;12.65;;;;;;;;;;4984077;28;20496;-78
2024/01/25 06:20:10;;;;;;;79.45;10.70;;;;;;;;;;4989713;28;20484;-76
2024/01/25 06:22:36;;;;;;;72.45;11.93;;;;;;;;;;4994820;28;20034;-75
2024/01/25 06:25:04;;;;;;;75.47;11.70;;;;;;;;;;5013090;28;20117;-77
2024/01/25 06:27:30;;;;;;;86.72;12.82;;;;;;;;;;4988440;28;20085;-76
2024/01/25 06:29:57;;;;;;;90.97;14.00;;;;;;;;;;4990419;28;20026;-76
2024/01/25 06:32:23;;;;;;;113.15;17.90;;;;;;;;;;4984705;28;20282;-77
2024/01/25 06:34:49;;;;;;;112.90;17.85;;;;;;;;;;4989941;28;20046;-78
2024/01/25 06:37:18;;;;;;;99.43;19.42;;;;;;;;;;4989148;28;20498;-77
2024/01/25 06:39:44;;;;;;;117.20;20.30;;;;;;;;;;4990658;28;20057;-78
2024/01/25 06:42:10;;;;;;;111.00;19.83;;;;;;;;;;4988473;28;20030;-78
2024/01/25 06:44:37;;;;;;;120.70;26.13;;;;;;;;;;4992569;28;20033;-77
2024/01/25 06:47:03;;;;;;;100.47;20.52;;;;;;;;;;5001703;28;20053;-77
2024/01/25 06:49:29;;;;;;;107.95;22.65;;;;;;;;;;4989932;28;20038;-76
2024/01/25 06:51:56;;;;;;;102.30;21.75;;;;;;;;;;4973821;28;20030;-76
2024/01/25 06:54:25;;;;;;;124.75;25.85;;;;;;;;;;4991245;28;20030;-77
2024/01/25 06:56:51;;;;;;;121.60;26.58;;;;;;;;;;4991904;28;20038;-77
2024/01/25 06:59:17;;;;;;;123.18;28.52;;;;;;;;;;4991119;28;20046;-77
2024/01/25 07:01:43;;;;;;;128.35;27.38;;;;;;;;;;4991479;28;20030;-76
2024/01/25 07:04:09;;;;;;;145.20;27.63;;;;;;;;;;4989904;28;20364;-77
2024/01/25 07:06:36;;;;;;;105.20;28.15;;;;;;;;;;4989562;28;20037;-76
2024/01/25 07:09:02;;;;;;;123.20;27.90;;;;;;;;;;4989231;28;20041;-76
2024/01/25 07:11:28;;;;;;;135.07;30.67;;;;;;;;;;4984854;28;20049;-77
2024/01/25 07:13:54;;;;;;;156.38;34.80;;;;;;;;;;4990493;28;20034;-77
2024/01/25 07:16:21;;;;;;;148.25;33.22;;;;;;;;;;5014118;28;20050;-76
2024/01/25 07:18:47;;;;;;;141.15;36.17;;;;;;;;;;4986686;28;20034;-76
2024/01/25 07:21:14;;;;;;;142.95;36.08;;;;;;;;;;4990688;28;20241;-77
2024/01/25 07:23:40;;;;;;;150.13;36.17;;;;;;;;;;4991196;28;20069;-76
2024/01/25 07:26:06;;;;;;;149.68;40.65;;;;;;;;;;4990951;28;20038;-77
2024/01/25 07:28:32;;;;;;;138.75;34.65;;;;;;;;;;4990935;28;20407;-76
2024/01/25 07:30:58;;;;;;;119.60;31.88;;;;;;;;;;4972840;28;20038;-75
2024/01/25 07:33:25;;;;;;;141.15;33.83;;;;;;;;;;4988376;28;20074;-76
2024/01/25 07:35:51;;;;;;;125.57;30.85;;;;;;;;;;4973458;28;20312;-77
2024/01/25 07:38:18;;;;;;;133.10;32.45;;;;;;;;;;4997119;28;20073;-76
2024/01/25 07:40:44;;;;;;;117.07;29.98;;;;;;;;;;4970725;28;20082;-77
2024/01/25 07:43:10;;;;;;;124.43;33.58;;;;;;;;;;4982404;28;20038;-76
2024/01/25 07:45:37;;;;;;;111.90;28.70;;;;;;;;;;5021304;28;20116;-77
2024/01/25 07:48:04;;;;;;;125.30;25.88;;;;;;;;;;4989035;28;20559;-77
2024/01/25 07:50:30;;;;;;;120.55;26.20;;;;;;;;;;4988915;28;20042;-77
2024/01/25 07:52:56;;;;;;;109.53;25.33;;;;;;;;;;4991716;28;20062;-76
2024/01/25 07:55:22;;;;;;;109.68;26.35;;;;;;;;;;4990426;28;20045;-77
2024/01/25 07:57:48;;;;;;;101.43;24.05;;;;;;;;;;5020523;28;20026;-78
2024/01/25 08:00:14;;;;;;;82.75;20.17;;;;;;;;;;5003720;28;20030;-76
2024/01/25 08:02:41;;;;;;;111.63;19.42;;;;;;;;;;5019025;28;20065;-77
2024/01/25 08:05:07;;;;;;;109.70;19.38;;;;;;;;;;5002620;28;20076;-76
2024/01/25 08:07:34;;;;;;;111.95;19.25;;;;;;;;;;4989329;28;20042;-76
2024/01/25 08:10:00;;;;;;;91.47;19.23;;;;;;;;;;4989723;28;20057;-76
2024/01/25 08:12:26;;;;;;;88.18;17.88;;;;;;;;;;4984107;28;20452;-76
2024/01/25 08:14:52;;;;;;;98.50;17.85;;;;;;;;;;5011892;28;20034;-76
2024/01/25 08:17:20;;;;;;;100.43;20.33;;;;;;;;;;4987170;28;20030;-77
2024/01/25 08:19:46;;;;;;;92.32;16.80;;;;;;;;;;4985711;28;20081;-76
2024/01/25 08:22:12;;;;;;;113.88;18.75;;;;;;;;;;4985959;28;20114;-76
2024/01/25 08:24:41;;;;;;;97.68;15.88;;;;;;;;;;4985775;28;20492;-76
2024/01/25 08:27:08;;;;;;;126.15;18.55;;;;;;;;;;4986901;28;20381;-76
2024/01/25 08:29:34;;;;;;;93.60;15.68;;;;;;;;;;5007782;28;20034;-76
2024/01/25 08:32:00;;;;;;;84.28;15.25;;;;;;;;;;5008285;28;20177;-76
2024/01/25 08:34:26;;;;;;;93.25;16.05;;;;;;;;;;4986575;28;20128;-77
2024/01/25 08:36:52;;;;;;;83.25;14.30;;;;;;;;;;4992840;28;20061;-76
2024/01/25 08:39:18;;;;;;;84.25;13.85;;;;;;;;;;4989657;28;20038;-75
2024/01/25 08:41:45;;;;;;;81.78;14.75;;;;;;;;;;4991869;28;20030;-76
2024/01/25 08:44:11;;;;;;;95.70;16.55;;;;;;;;;;4988308;28;20023;-77
2024/01/25 08:46:38;;;;;;;92.95;16.48;;;;;;;;;;4978945;28;20053;-75
2024/01/25 08:49:08;;;;;;;113.10;20.10;;;;;;;;;;4969108;28;20053;-76
2024/01/25 08:51:34;;;;;;;82.95;17.70;;;;;;;;;;4988042;28;20495;-76
2024/01/25 08:54:00;;;;;;;81.40;15.73;;;;;;;;;;5006589;28;20039;-76
2024/01/25 08:56:27;;;;;;;92.82;17.40;;;;;;;;;;4987525;28;20034;-76
2024/01/25 08:58:53;;;;;;;93.32;17.25;;;;;;;;;;4989726;28;20404;-76
2024/01/25 09:01:19;;;;;;;72.15;14.68;;;;;;;;;;4987877;28;20033;-76
2024/01/25 09:03:45;;;;;;;77.40;14.57;;;;;;;;;;4977128;28;20042;-76
2024/01/25 09:06:12;;;;;;;74.47;16.23;;;;;;;;;;4965754;28;20023;-76
2024/01/25 09:08:38;;;;;;;80.53;15.50;;;;;;;;;;5018548;28;20322;-76
2024/01/25 09:11:04;;;;;;;91.93;15.98;;;;;;;;;;5019046;28;20042;-76
2024/01/25 09:13:32;;;;;;;84.82;14.43;;;;;;;;;;4987366;28;20031;-76
2024/01/25 09:15:58;;;;;;;90.47;16.25;;;;;;;;;;4990628;28;20038;-76
2024/01/25 09:18:25;;;;;;;84.28;16.05;;;;;;;;;;5004097;28;20070;-76
2024/01/25 09:20:51;;;;;;;78.10;15.70;;;;;;;;;;4975262;28;20038;-76
2024/01/25 09:23:17;;;;;;;69.53;13.07;;;;;;;;;;4974527;28;20039;-76
2024/01/25 09:25:44;;;;;;;71.05;13.45;;;;;;;;;;4974009;28;20035;-77
2024/01/25 09:28:14;;;;;;;76.53;12.70;;;;;;;;;;5005325;28;20047;-75
2024/01/25 09:30:41;;;;;;;71.13;14.97;;;;;;;;;;4975976;28;20039;-77
2024/01/25 09:33:07;;;;;;;72.45;12.77;;;;;;;;;;4990996;28;20054;-76
2024/01/25 09:35:33;;;;;;;86.50;14.45;;;;;;;;;;4974179;28;20080;-76
2024/01/25 09:38:00;;;;;;;87.43;13.55;;;;;;;;;;4974231;28;20373;-76
2024/01/25 09:40:26;;;;;;;56.78;11.23;;;;;;;;;;4974310;28;20181;-75
2024/01/25 09:42:52;;;;;;;68.63;14.68;;;;;;;;;;4974573;28;20084;-77
2024/01/25 09:45:19;;;;;;;75.93;13.00;;;;;;;;;;4982630;28;20400;-76
2024/01/25 09:47:47;;;;;;;68.70;13.07;;;;;;;;;;4993198;28;20045;-76
2024/01/25 09:50:14;;;;;;;64.90;14.82;;;;;;;;;;4976861;28;20503;-75
2024/01/25 09:52:40;;;;;;;70.13;11.45;;;;;;;;;;4973783;28;20027;-75
2024/01/25 09:55:14;;;;;;;67.68;11.40;;;;;;;;;;4973445;28;20055;-75
2024/01/25 09:57:42;;;;;;;65.75;12.18;;;;;;;;;;4973461;28;20121;-77
2024/01/25 10:00:11;;;;;;;64.93;12.00;;;;;;;;;;4973344;28;20054;-77
2024/01/25 10:02:38;;;;;;;61.72;12.15;;;;;;;;;;4973637;28;20057;-76
2024/01/25 10:05:04;;;;;;;57.40;11.82;;;;;;;;;;4973416;28;20038;-74
2024/01/25 10:07:40;;;;;;;68.85;12.50;;;;;;;;;;4971987;28;20035;-79
2024/01/25 10:10:07;;;;;;;59.15;11.20;;;;;;;;;;4973453;28;20215;-76
2024/01/25 10:12:33;;;;;;;63.42;10.45;;;;;;;;;;4972946;28;20488;-78
2024/01/25 10:14:59;;;;;;;49.33;10.00;;;;;;;;;;4972633;28;20031;-77
2024/01/25 10:17:26;;;;;;;53.17;10.18;;;;;;;;;;4972853;28;20042;-75
2024/01/25 10:19:52;;;;;;;66.95;10.32;;;;;;;;;;4971585;28;20106;-76
2024/01/25 10:22:18;;;;;;;63.65;11.15;;;;;;;;;;4971938;28;20066;-76
2024/01/25 10:24:45;;;;;;;54.13;10.75;;;;;;;;;;4971589;28;20054;-77
2024/01/25 10:27:12;;;;;;;69.95;9.65;;;;;;;;;;4972054;28;20042;-76
2024/01/25 10:29:38;;;;;;;57.83;11.02;;;;;;;;;;4973360;28;20109;-76
2024/01/25 10:32:04;;;;;;;65.20;9.85;;;;;;;;;;4972742;28;20050;-76
2024/01/25 10:34:31;;;;;;;48.88;9.05;;;;;;;;;;4970300;28;20126;-77
2024/01/25 10:36:57;;;;;;;63.85;9.95;;;;;;;;;;4972103;28;20062;-76
2024/01/25 10:39:25;;;;;;;47.10;10.05;;;;;;;;;;4972457;28;20038;-78
2024/01/25 10:41:52;;;;;;;63.88;10.55;;;;;;;;;;4990127;28;20475;-77
2024/01/25 10:44:21;;;;;;;53.90;10.93;;;;;;;;;;4989433;28;20022;-76
2024/01/25 10:46:49;;;;;;;54.10;11.52;;;;;;;;;;4989326;28;20026;-77
2024/01/25 10:49:17;;;;;;;55.15;10.43;;;;;;;;;;4988602;28;20042;-76
2024/01/25 10:51:43;;;;;;;48.20;9.95;;;;;;;;;;4990973;28;20123;-75
2024/01/25 10:54:11;;;;;;;56.45;9.88;;;;;;;;;;4991146;28;20053;-76
2024/01/25 10:56:39;;;;;;;55.70;12.00;;;;;;;;;;4989835;28;20073;-74
2024/01/25 10:59:06;;;;;;;52.10;10.20;;;;;;;;;;4990307;28;20035;-76
2024/01/25 11:01:38;;;;;;;56.47;10.93;;;;;;;;;;4990646;28;20034;-76
2024/01/25 11:04:12;;;;;;;54.50;10.95;;;;;;;;;;4990649;28;20034;-76
2024/01/25 11:06:39;;;;;;;61.45;10.68;;;;;;;;;;4990476;28;20038;-75
2024/01/25 11:09:05;;;;;;;49.47;11.93;;;;;;;;;;4988983;28;20137;-76
2024/01/25 11:11:32;;;;;;;52.15;12.50;;;;;;;;;;4972848;28;20038;-76
2024/01/25 11:13:59;;;;;;;49.22;12.48;;;;;;;;;;4990088;28;20184;-77
2024/01/25 11:16:29;;;;;;;63.38;13.07;;;;;;;;;;4990103;28;20030;-77
2024/01/25 11:19:06;;;;;;;44.22;11.70;;;;;;;;;;4975496;28;20022;-76
2024/01/25 11:21:40;;;;;;;55.80;14.05;;;;;;;;;;4969554;28;20034;-76
2024/01/25 11:24:12;;;;;;;47.03;12.05;;;;;;;;;;5002418;28;20045;-77
2024/01/25 11:26:38;;;;;;;55.83;12.52;;;;;;;;;;4970888;28;20027;-76
2024/01/25 11:29:05;;;;;;;60.50;13.02;;;;;;;;;;4970015;28;20054;-76
2024/01/25 11:31:31;;;;;;;54.47;11.85;;;;;;;;;;4946750;28;1206052;-77
2024/01/25 11:33:59;;;;;;;48.25;12.65;;;;;;;;;;4971509;28;20062;-76
2024/01/25 11:36:26;;;;;;;65.45;12.02;;;;;;;;;;5001765;28;20038;-75
2024/01/25 11:38:52;;;;;;;64.55;13.02;;;;;;;;;;4970900;28;20034;-77
2024/01/25 11:41:19;;;;;;;55.90;11.95;;;;;;;;;;4970099;28;20169;-77
2024/01/25 11:43:45;;;;;;;55.45;12.48;;;;;;;;;;4982407;28;20037;-76
2024/01/25 11:46:12;;;;;;;59.17;12.02;;;;;;;;;;4991546;28;20026;-74
2024/01/25 11:48:42;;;;;;;57.63;12.52;;;;;;;;;;4979358;28;20385;-76
2024/01/25 11:51:11;;;;;;;56.15;13.18;;;;;;;;;;4971805;28;20035;-76
2024/01/25 11:53:37;;;;;;;60.85;11.60;;;;;;;;;;5008207;28;20507;-78
2024/01/25 11:56:05;;;;;;;72.20;15.45;;;;;;;;;;4990054;28;20455;-77
2024/01/25 11:58:31;;;;;;;65.43;11.65;;;;;;;;;;4990605;28;20030;-77
2024/01/25 12:00:58;;;;;;;53.03;12.65;;;;;;;;;;4989644;28;20030;-77
2024/01/25 12:03:24;;;;;;;65.68;13.07;;;;;;;;;;4980216;28;20039;-76
2024/01/25 12:05:51;;;;;;;59.83;11.65;;;;;;;;;;5016133;28;20038;-76
2024/01/25 12:08:17;;;;;;;52.15;10.60;;;;;;;;;;4989627;28;20080;-77
2024/01/25 12:10:44;;;;;;;51.17;10.50;;;;;;;;;;5015569;28;20034;-77
2024/01/25 12:13:10;;;;;;;61.22;11.55;;;;;;;;;;4988070;28;20061;-77
2024/01/25 12:15:36;;;;;;;57.65;10.50;;;;;;;;;;4987031;28;20034;-77
2024/01/25 12:18:02;;;;;;;52.70;12.32;;;;;;;;;;4989355;28;20177;-77
2024/01/25 12:20:29;;;;;;;57.50;11.65;;;;;;;;;;4987389;28;20034;-76
2024/01/25 12:22:55;;;;;;;63.67;12.55;;;;;;;;;;5010393;28;20026;-77
2024/01/25 12:25:21;;;;;;;60.58;12.43;;;;;;;;;;5019542;28;20042;-76
2024/01/25 12:27:50;;;;;;;47.55;11.82;;;;;;;;;;5007399;28;20084;-76
2024/01/25 12:30:16;;;;;;;57.63;13.77;;;;;;;;;;4970516;28;20044;-77
2024/01/25 12:32:42;;;;;;;64.53;13.48;;;;;;;;;;4976201;28;20085;-76
2024/01/25 12:35:09;;;;;;;63.35;13.23;;;;;;;;;;4988748;28;20097;-77
2024/01/25 12:37:35;;;;;;;52.08;12.00;;;;;;;;;;4990154;28;20117;-76
2024/01/25 12:40:02;;;;;;;49.88;10.68;;;;;;;;;;5006767;28;20031;-76
2024/01/25 12:42:28;;;;;;;54.65;11.57;;;;;;;;;;4969610;28;20046;-77
2024/01/25 12:44:55;;;;;;;53.15;11.82;;;;;;;;;;4970532;28;20035;-77
2024/01/25 12:47:21;;;;;;;48.95;11.43;;;;;;;;;;4970508;28;20038;-77
2024/01/25 12:49:47;;;;;;;54.88;12.07;;;;;;;;;;5001865;28;20026;-77
2024/01/25 12:52:15;;;;;;;41.35;11.02;;;;;;;;;;4969890;28;20050;-77
2024/01/25 12:54:41;;;;;;;67.95;12.80;;;;;;;;;;4969550;28;20031;-76
2024/01/25 12:57:08;;;;;;;48.55;11.65;;;;;;;;;;4970914;28;20026;-77
2024/01/25 12:59:34;;;;;;;50.85;12.18;;;;;;;;;;4971032;28;20055;-76
2024/01/25 13:02:01;;;;;;;55.35;12.95;;;;;;;;;;4971187;28;20031;-77
2024/01/25 13:04:27;;;;;;;49.00;10.23;;;;;;;;;;4970362;28;20031;-77
2024/01/25 13:06:57;;;;;;;53.58;11.68;;;;;;;;;;4970641;28;20027;-76
2024/01/25 13:09:26;;;;;;;59.42;12.90;;;;;;;;;;4969576;28;20066;-78
2024/01/25 13:11:52;;;;;;;49.30;11.98;;;;;;;;;;4981182;28;20034;-77
2024/01/25 13:14:19;;;;;;;58.92;11.40;;;;;;;;;;4970895;28;20027;-78
2024/01/25 13:16:45;;;;;;;47.60;10.48;;;;;;;;;;4989326;28;20385;-77
2024/01/25 13:19:14;;;;;;;54.17;9.70;;;;;;;;;;4973025;28;20035;-77
2024/01/25 13:21:41;;;;;;;49.97;10.95;;;;;;;;;;4988860;28;20053;-76
2024/01/25 13:24:07;;;;;;;54.28;10.88;;;;;;;;;;4983982;28;20105;-77
2024/01/25 13:26:34;;;;;;;45.95;9.05;;;;;;;;;;5003120;28;20023;-76
2024/01/25 13:29:01;;;;;;;50.53;10.85;;;;;;;;;;4984377;28;20030;-76
2024/01/25 13:31:27;;;;;;;54.80;10.68;;;;;;;;;;4992293;28;20533;-78
2024/01/25 13:33:53;;;;;;;62.60;10.93;;;;;;;;;;4988600;28;20046;-76
2024/01/25 13:36:19;;;;;;;50.50;10.18;;;;;;;;;;4985844;28;20335;-77
2024/01/25 13:38:45;;;;;;;55.33;11.98;;;;;;;;;;5010809;28;20560;-78
2024/01/25 13:41:11;;;;;;;57.40;11.60;;;;;;;;;;5011570;28;20030;-77
2024/01/25 13:43:38;;;;;;;60.13;11.95;;;;;;;;;;4991976;28;20031;-76
2024/01/25 13:46:04;;;;;;;52.60;11.77;;;;;;;;;;4988496;28;20034;-76
2024/01/25 13:48:30;;;;;;;56.65;12.38;;;;;;;;;;4995134;28;20038;-76
2024/01/25 13:50:56;;;;;;;56.63;12.32;;;;;;;;;;4991958;28;20038;-75
2024/01/25 13:53:24;;;;;;;61.42;13.27;;;;;;;;;;4986159;28;20034;-77
2024/01/25 13:55:50;;;;;;;51.33;11.70;;;;;;;;;;4990987;28;20400;-76
2024/01/25 13:58:17;;;;;;;59.92;11.63;;;;;;;;;;4988287;28;20447;-76
2024/01/25 14:00:44;;;;;;;56.85;12.35;;;;;;;;;;4987496;28;20116;-77
2024/01/25 14:03:10;;;;;;;57.08;12.73;;;;;;;;;;4993108;28;20176;-75
2024/01/25 14:05:36;;;;;;;52.83;11.05;;;;;;;;;;4993486;28;20027;-76
2024/01/25 14:08:03;;;;;;;68.40;12.23;;;;;;;;;;4994104;28;20120;-76
2024/01/25 14:10:29;;;;;;;60.05;12.38;;;;;;;;;;4973892;28;20086;-76
2024/01/25 14:12:55;;;;;;;60.08;11.98;;;;;;;;;;4992844;28;20039;-76
2024/01/25 14:15:24;;;;;;;60.58;12.27;;;;;;;;;;5001505;28;20034;-77
2024/01/25 14:17:51;;;;;;;56.88;11.45;;;;;;;;;;4992365;28;20038;-75